sensor_id;sensor_type;location;lat;lon;timestamp;temperature;humidity
1994;DHT22;998;49.906;10.908;2023-06-22T00:02:26;23.00;99.90
1994;DHT22;998;49.906;10.908;2023-06-22T00:04:54;23.00;99.90
1994;DHT22;998;49.906;10.908;2023-06-22T00:07:22;23.00;99.90
1994;DHT22;998;49.906;10.908;2023-06-22T00:09:50;23.00;99.90
1994;DHT22;998;49.906;10.908;2023-06-22T00:12:17;23.00;99.90
1994;DHT22;998;49.906;10.908;2023-06-22T00:14:45;23.00;99.90
1994;DHT22;998;49.906;10.908;2023-06-22T00:17:12;22.80;99.90
1994;DHT22;998;49.906;10.908;2023-06-22T00:19:39;22.80;99.90
1994;DHT22;998;49.906;10.908;2023-06-22T00:22:07;22.70;99.90
1994;DHT22;998;49.906;10.908;2023-06-22T00:24:36;22.60;99.90
1994;DHT22;998;49.906;10.908;2023-06-22T00:27:03;22.60;99.90
1994;DHT22;998;49.906;10.908;2023-06-22T00:29:31;22.60;99.90
1994;DHT22;998;49.906;10.908;2023-06-22T00:31:59;22.60;99.90
1994;DHT22;998;49.906;10.908;2023-06-22T00:34:26;22.50;99.90
1994;DHT22;998;49.906;10.908;2023-06-22T00:36:53;22.50;99.90
1994;DHT22;998;49.906;10.908;2023-06-22T00:39:21;22.60;99.90
1994;DHT22;998;49.906;10.908;2023-06-22T00:41:50;22.60;99.90
1994;DHT22;998;49.906;10.908;2023-06-22T00:44:17;22.60;99.90
1994;DHT22;998;49.906;10.908;2023-06-22T00:46:44;22.50;99.90
1994;DHT22;998;49.906;10.908;2023-06-22T00:49:12;22.50;99.90
1994;DHT22;998;49.906;10.908;2023-06-22T00:51:39;22.40;99.90
1994;DHT22;998;49.906;10.908;2023-06-22T00:54:13;22.50;99.90
1994;DHT22;998;49.906;10.908;2023-06-22T00:56:41;22.50;99.90
1994;DHT22;998;49.906;10.908;2023-06-22T00:59:10;22.30;99.90
1994;DHT22;998;49.906;10.908;2023-06-22T01:01:39;22.40;99.90
1994;DHT22;998;49.906;10.908;2023-06-22T01:04:07;22.30;99.90
1994;DHT22;998;49.906;10.908;2023-06-22T01:06:41;22.40;99.90
1994;DHT22;998;49.906;10.908;2023-06-22T01:09:15;22.40;99.90
1994;DHT22;998;49.906;10.908;2023-06-22T01:11:47;22.40;99.90
1994;DHT22;998;49.906;10.908;2023-06-22T01:14:24;22.40;99.90
1994;DHT22;998;49.906;10.908;2023-06-22T01:16:55;22.40;99.90
1994;DHT22;998;49.906;10.908;2023-06-22T01:19:39;22.30;99.90
1994;DHT22;998;49.906;10.908;2023-06-22T01:22:09;22.30;99.90
1994;DHT22;998;49.906;10.908;2023-06-22T01:24:48;22.20;99.90
1994;DHT22;998;49.906;10.908;2023-06-22T01:27:33;22.20;99.90
1994;DHT22;998;49.906;10.908;2023-06-22T01:30:09;22.10;99.90
1994;DHT22;998;49.906;10.908;2023-06-22T01:32:38;22.20;99.90
1994;DHT22;998;49.906;10.908;2023-06-22T01:35:08;22.10;99.90
1994;DHT22;998;49.906;10.908;2023-06-22T01:37:37;22.10;99.90
1994;DHT22;998;49.906;10.908;2023-06-22T01:40:06;22.20;99.90
1994;DHT22;998;49.906;10.908;2023-06-22T01:42:37;22.20;99.90
1994;DHT22;998;49.906;10.908;2023-06-22T01:45:06;22.20;99.90
1994;DHT22;998;49.906;10.908;2023-06-22T01:47:36;22.10;99.90
1994;DHT22;998;49.906;10.908;2023-06-22T01:50:04;22.10;99.90
1994;DHT22;998;49.906;10.908;2023-06-22T01:52:32;22.00;99.90
1994;DHT22;998;49.906;10.908;2023-06-22T01:54:59;22.10;99.90
1994;DHT22;998;49.906;10.908;2023-06-22T01:57:27;22.10;99.90
1994;DHT22;998;49.906;10.908;2023-06-22T02:00:00;22.00;99.90
1994;DHT22;998;49.906;10.908;2023-06-22T02:02:32;21.90;99.90
1994;DHT22;998;49.906;10.908;2023-06-22T02:05:05;21.90;99.90
1994;DHT22;998;49.906;10.908;2023-06-22T02:07:39;21.90;99.90
1994;DHT22;998;49.906;10.908;2023-06-22T02:10:10;21.80;99.90
1994;DHT22;998;49.906;10.908;2023-06-22T02:12:40;21.90;99.90
1994;DHT22;998;49.906;10.908;2023-06-22T02:15:09;21.90;99.90
1994;DHT22;998;49.906;10.908;2023-06-22T02:17:38;21.80;99.90
1994;DHT22;998;49.906;10.908;2023-06-22T02:20:14;21.80;99.90
1994;DHT22;998;49.906;10.908;2023-06-22T02:22:42;21.90;99.90
1994;DHT22;998;49.906;10.908;2023-06-22T02:25:09;21.70;99.90
1994;DHT22;998;49.906;10.908;2023-06-22T02:27:36;21.70;99.90
1994;DHT22;998;49.906;10.908;2023-06-22T02:30:07;21.60;99.90
1994;DHT22;998;49.906;10.908;2023-06-22T02:32:35;21.60;99.90
1994;DHT22;998;49.906;10.908;2023-06-22T02:35:03;21.60;99.90
1994;DHT22;998;49.906;10.908;2023-06-22T02:37:33;21.70;99.90
1994;DHT22;998;49.906;10.908;2023-06-22T02:40:05;21.80;99.90
1994;DHT22;998;49.906;10.908;2023-06-22T02:42:34;21.70;99.90
1994;DHT22;998;49.906;10.908;2023-06-22T02:45:02;21.70;99.90
1994;DHT22;998;49.906;10.908;2023-06-22T02:47:30;21.70;99.90
1994;DHT22;998;49.906;10.908;2023-06-22T02:49:57;21.40;99.90
1994;DHT22;998;49.906;10.908;2023-06-22T02:52:25;21.30;99.90
1994;DHT22;998;49.906;10.908;2023-06-22T02:54:53;21.30;99.90
1994;DHT22;998;49.906;10.908;2023-06-22T02:57:21;21.30;99.90
1994;DHT22;998;49.906;10.908;2023-06-22T02:59:48;21.50;99.90
1994;DHT22;998;49.906;10.908;2023-06-22T03:02:16;21.50;99.90
1994;DHT22;998;49.906;10.908;2023-06-22T03:04:43;21.50;99.90
1994;DHT22;998;49.906;10.908;2023-06-22T03:07:12;21.60;99.90
1994;DHT22;998;49.906;10.908;2023-06-22T03:09:39;21.70;99.90
1994;DHT22;998;49.906;10.908;2023-06-22T03:12:09;21.70;99.90
1994;DHT22;998;49.906;10.908;2023-06-22T03:14:36;21.60;99.90
1994;DHT22;998;49.906;10.908;2023-06-22T03:17:04;21.60;99.90
1994;DHT22;998;49.906;10.908;2023-06-22T03:19:32;21.50;99.90
1994;DHT22;998;49.906;10.908;2023-06-22T03:22:00;21.60;99.90
1994;DHT22;998;49.906;10.908;2023-06-22T03:24:27;21.60;99.90
1994;DHT22;998;49.906;10.908;2023-06-22T03:26:55;21.60;99.90
1994;DHT22;998;49.906;10.908;2023-06-22T03:29:25;21.50;99.90
1994;DHT22;998;49.906;10.908;2023-06-22T03:31:52;21.60;99.90
1994;DHT22;998;49.906;10.908;2023-06-22T03:34:20;21.60;99.90
1994;DHT22;998;49.906;10.908;2023-06-22T03:36:47;21.70;99.90
1994;DHT22;998;49.906;10.908;2023-06-22T03:39:14;21.80;99.90
1994;DHT22;998;49.906;10.908;2023-06-22T03:41:42;21.90;99.90
1994;DHT22;998;49.906;10.908;2023-06-22T03:44:09;21.90;99.90
1994;DHT22;998;49.906;10.908;2023-06-22T03:46:39;21.90;99.90
1994;DHT22;998;49.906;10.908;2023-06-22T03:49:07;21.90;99.90
1994;DHT22;998;49.906;10.908;2023-06-22T03:51:34;21.90;99.90
1994;DHT22;998;49.906;10.908;2023-06-22T03:54:02;21.80;99.90
1994;DHT22;998;49.906;10.908;2023-06-22T03:56:29;21.80;99.90
1994;DHT22;998;49.906;10.908;2023-06-22T03:58:57;21.80;99.90
1994;DHT22;998;49.906;10.908;2023-06-22T04:01:24;21.80;99.90
1994;DHT22;998;49.906;10.908;2023-06-22T04:03:53;21.90;99.90
1994;DHT22;998;49.906;10.908;2023-06-22T04:06:21;21.80;99.90
1994;DHT22;998;49.906;10.908;2023-06-22T04:08:49;21.80;99.90
1994;DHT22;998;49.906;10.908;2023-06-22T04:11:16;21.80;99.90
1994;DHT22;998;49.906;10.908;2023-06-22T04:13:44;21.80;99.90
1994;DHT22;998;49.906;10.908;2023-06-22T04:16:11;21.80;99.90
1994;DHT22;998;49.906;10.908;2023-06-22T04:18:39;21.80;99.90
1994;DHT22;998;49.906;10.908;2023-06-22T04:21:09;21.90;99.90
1994;DHT22;998;49.906;10.908;2023-06-22T04:23:37;21.90;99.90
1994;DHT22;998;49.906;10.908;2023-06-22T04:26:04;22.00;99.90
1994;DHT22;998;49.906;10.908;2023-06-22T04:28:32;22.00;99.90
1994;DHT22;998;49.906;10.908;2023-06-22T04:31:01;22.00;99.90
1994;DHT22;998;49.906;10.908;2023-06-22T04:33:28;21.90;99.90
1994;DHT22;998;49.906;10.908;2023-06-22T04:35:56;21.90;99.90
1994;DHT22;998;49.906;10.908;2023-06-22T04:38:25;21.80;99.90
1994;DHT22;998;49.906;10.908;2023-06-22T04:40:52;21.70;99.90
1994;DHT22;998;49.906;10.908;2023-06-22T04:43:20;21.60;99.90
1994;DHT22;998;49.906;10.908;2023-06-22T04:45:47;21.70;99.90
1994;DHT22;998;49.906;10.908;2023-06-22T04:48:18;21.70;99.90
1994;DHT22;998;49.906;10.908;2023-06-22T04:50:45;21.70;99.90
1994;DHT22;998;49.906;10.908;2023-06-22T04:53:13;21.70;99.90
1994;DHT22;998;49.906;10.908;2023-06-22T04:55:42;21.70;99.90
1994;DHT22;998;49.906;10.908;2023-06-22T04:58:12;21.70;99.90
1994;DHT22;998;49.906;10.908;2023-06-22T05:00:39;21.60;99.90
1994;DHT22;998;49.906;10.908;2023-06-22T05:03:07;21.60;99.90
1994;DHT22;998;49.906;10.908;2023-06-22T05:05:37;21.70;99.90
1994;DHT22;998;49.906;10.908;2023-06-22T05:08:04;21.70;99.90
1994;DHT22;998;49.906;10.908;2023-06-22T05:10:32;21.80;99.90
1994;DHT22;998;49.906;10.908;2023-06-22T05:13:01;21.90;99.90
1994;DHT22;998;49.906;10.908;2023-06-22T05:15:28;21.90;99.90
1994;DHT22;998;49.906;10.908;2023-06-22T05:17:59;22.00;99.90
1994;DHT22;998;49.906;10.908;2023-06-22T05:20:31;22.00;99.90
1994;DHT22;998;49.906;10.908;2023-06-22T05:23:00;22.10;99.90
1994;DHT22;998;49.906;10.908;2023-06-22T05:25:27;22.10;99.90
1994;DHT22;998;49.906;10.908;2023-06-22T05:27:55;22.10;99.90
1994;DHT22;998;49.906;10.908;2023-06-22T05:30:24;22.00;99.90
1994;DHT22;998;49.906;10.908;2023-06-22T05:32:51;22.10;99.90
1994;DHT22;998;49.906;10.908;2023-06-22T05:35:19;22.00;99.90
1994;DHT22;998;49.906;10.908;2023-06-22T05:37:46;22.00;99.90
1994;DHT22;998;49.906;10.908;2023-06-22T05:40:14;22.00;99.90
1994;DHT22;998;49.906;10.908;2023-06-22T05:42:41;22.00;99.90
1994;DHT22;998;49.906;10.908;2023-06-22T05:45:09;22.10;99.90
1994;DHT22;998;49.906;10.908;2023-06-22T05:47:38;22.10;99.90
1994;DHT22;998;49.906;10.908;2023-06-22T05:50:06;22.20;99.90
1994;DHT22;998;49.906;10.908;2023-06-22T05:52:34;22.20;99.90
1994;DHT22;998;49.906;10.908;2023-06-22T05:55:02;22.30;99.90
1994;DHT22;998;49.906;10.908;2023-06-22T05:57:30;22.30;99.90
1994;DHT22;998;49.906;10.908;2023-06-22T05:59:57;22.30;99.90
1994;DHT22;998;49.906;10.908;2023-06-22T06:02:24;22.40;99.90
1994;DHT22;998;49.906;10.908;2023-06-22T06:04:53;22.40;99.90
1994;DHT22;998;49.906;10.908;2023-06-22T06:07:21;22.50;99.90
1994;DHT22;998;49.906;10.908;2023-06-22T06:09:49;22.50;99.90
1994;DHT22;998;49.906;10.908;2023-06-22T06:12:16;22.50;99.90
1994;DHT22;998;49.906;10.908;2023-06-22T06:14:43;22.50;99.90
1994;DHT22;998;49.906;10.908;2023-06-22T06:17:10;22.60;99.90
1994;DHT22;998;49.906;10.908;2023-06-22T06:19:38;22.70;99.90
1994;DHT22;998;49.906;10.908;2023-06-22T06:22:07;22.70;99.90
1994;DHT22;998;49.906;10.908;2023-06-22T06:24:34;22.70;99.90
1994;DHT22;998;49.906;10.908;2023-06-22T06:27:01;22.80;99.90
1994;DHT22;998;49.906;10.908;2023-06-22T06:29:30;22.90;99.90
1994;DHT22;998;49.906;10.908;2023-06-22T06:31:58;23.00;99.90
1994;DHT22;998;49.906;10.908;2023-06-22T06:34:25;23.00;99.90
1994;DHT22;998;49.906;10.908;2023-06-22T06:36:52;23.00;99.90
1994;DHT22;998;49.906;10.908;2023-06-22T06:39:21;23.00;99.90
1994;DHT22;998;49.906;10.908;2023-06-22T06:41:49;23.10;99.90
1994;DHT22;998;49.906;10.908;2023-06-22T06:44:16;23.10;99.90
1994;DHT22;998;49.906;10.908;2023-06-22T06:46:43;23.20;99.90
1994;DHT22;998;49.906;10.908;2023-06-22T06:49:11;23.20;99.90
1994;DHT22;998;49.906;10.908;2023-06-22T06:51:39;23.20;99.90
1994;DHT22;998;49.906;10.908;2023-06-22T06:54:06;23.30;99.90
1994;DHT22;998;49.906;10.908;2023-06-22T06:56:35;23.30;99.90
1994;DHT22;998;49.906;10.908;2023-06-22T06:59:02;23.40;99.90
1994;DHT22;998;49.906;10.908;2023-06-22T07:01:30;23.60;99.90
1994;DHT22;998;49.906;10.908;2023-06-22T07:03:59;23.60;99.90
1994;DHT22;998;49.906;10.908;2023-06-22T07:06:27;23.60;99.90
1994;DHT22;998;49.906;10.908;2023-06-22T07:08:57;23.70;99.90
1994;DHT22;998;49.906;10.908;2023-06-22T07:11:25;23.70;99.90
1994;DHT22;998;49.906;10.908;2023-06-22T07:13:54;23.70;99.90
1994;DHT22;998;49.906;10.908;2023-06-22T07:16:23;23.80;99.90
1994;DHT22;998;49.906;10.908;2023-06-22T07:18:51;23.90;99.90
1994;DHT22;998;49.906;10.908;2023-06-22T07:21:19;23.90;99.90
1994;DHT22;998;49.906;10.908;2023-06-22T07:23:46;24.00;99.90
1994;DHT22;998;49.906;10.908;2023-06-22T07:26:13;24.00;99.90
1994;DHT22;998;49.906;10.908;2023-06-22T07:28:42;24.00;99.90
1994;DHT22;998;49.906;10.908;2023-06-22T07:31:11;24.00;99.90
1994;DHT22;998;49.906;10.908;2023-06-22T07:33:38;24.10;99.90
1994;DHT22;998;49.906;10.908;2023-06-22T07:36:06;24.10;99.90
1994;DHT22;998;49.906;10.908;2023-06-22T07:38:34;24.20;99.90
1994;DHT22;998;49.906;10.908;2023-06-22T07:41:02;24.10;99.90
1994;DHT22;998;49.906;10.908;2023-06-22T07:43:31;24.20;99.90
1994;DHT22;998;49.906;10.908;2023-06-22T07:46:00;24.30;99.90
1994;DHT22;998;49.906;10.908;2023-06-22T07:48:29;24.40;99.90
1994;DHT22;998;49.906;10.908;2023-06-22T07:50:56;24.40;99.90
1994;DHT22;998;49.906;10.908;2023-06-22T07:53:24;24.40;99.90
1994;DHT22;998;49.906;10.908;2023-06-22T07:55:51;24.50;99.90
1994;DHT22;998;49.906;10.908;2023-06-22T07:58:18;24.40;99.90
1994;DHT22;998;49.906;10.908;2023-06-22T08:00:46;24.30;99.90
1994;DHT22;998;49.906;10.908;2023-06-22T08:03:14;24.40;99.90
1994;DHT22;998;49.906;10.908;2023-06-22T08:05:43;24.60;99.90
1994;DHT22;998;49.906;10.908;2023-06-22T08:08:11;24.60;99.90
1994;DHT22;998;49.906;10.908;2023-06-22T08:10:40;24.70;99.90
1994;DHT22;998;49.906;10.908;2023-06-22T08:13:08;24.80;99.90
1994;DHT22;998;49.906;10.908;2023-06-22T08:15:35;24.80;99.90
1994;DHT22;998;49.906;10.908;2023-06-22T08:18:03;24.90;99.90
1994;DHT22;998;49.906;10.908;2023-06-22T08:20:30;24.90;99.90
1994;DHT22;998;49.906;10.908;2023-06-22T08:22:58;25.00;99.90
1994;DHT22;998;49.906;10.908;2023-06-22T08:25:31;25.00;99.90
1994;DHT22;998;49.906;10.908;2023-06-22T08:28:00;25.00;99.90
1994;DHT22;998;49.906;10.908;2023-06-22T08:30:27;25.00;99.90
1994;DHT22;998;49.906;10.908;2023-06-22T08:32:55;25.00;99.90
1994;DHT22;998;49.906;10.908;2023-06-22T08:35:23;25.10;99.90
1994;DHT22;998;49.906;10.908;2023-06-22T08:37:50;25.20;99.90
1994;DHT22;998;49.906;10.908;2023-06-22T08:40:21;25.20;99.90
1994;DHT22;998;49.906;10.908;2023-06-22T08:42:49;25.30;99.90
1994;DHT22;998;49.906;10.908;2023-06-22T08:45:16;25.40;99.90
1994;DHT22;998;49.906;10.908;2023-06-22T08:47:44;25.40;99.90
1994;DHT22;998;49.906;10.908;2023-06-22T08:50:12;25.40;99.90
1994;DHT22;998;49.906;10.908;2023-06-22T08:52:40;25.60;99.90
1994;DHT22;998;49.906;10.908;2023-06-22T08:55:09;25.60;99.90
1994;DHT22;998;49.906;10.908;2023-06-22T08:57:38;25.60;99.90
1994;DHT22;998;49.906;10.908;2023-06-22T09:00:08;25.70;99.90
1994;DHT22;998;49.906;10.908;2023-06-22T09:02:43;25.70;99.90
1994;DHT22;998;49.906;10.908;2023-06-22T09:05:10;25.70;99.90
1994;DHT22;998;49.906;10.908;2023-06-22T09:07:37;25.70;99.90
1994;DHT22;998;49.906;10.908;2023-06-22T09:10:05;25.70;99.90
1994;DHT22;998;49.906;10.908;2023-06-22T09:12:33;25.80;99.90
1994;DHT22;998;49.906;10.908;2023-06-22T09:15:05;25.80;99.90
1994;DHT22;998;49.906;10.908;2023-06-22T09:17:33;25.80;99.90
1994;DHT22;998;49.906;10.908;2023-06-22T09:20:03;25.70;99.90
1994;DHT22;998;49.906;10.908;2023-06-22T09:22:31;25.80;99.90
1994;DHT22;998;49.906;10.908;2023-06-22T09:24:59;25.80;99.90
1994;DHT22;998;49.906;10.908;2023-06-22T09:27:26;26.00;99.90
1994;DHT22;998;49.906;10.908;2023-06-22T09:29:54;26.00;99.90
1994;DHT22;998;49.906;10.908;2023-06-22T09:32:25;26.20;99.90
1994;DHT22;998;49.906;10.908;2023-06-22T09:34:53;26.30;99.90
1994;DHT22;998;49.906;10.908;2023-06-22T09:37:20;26.20;99.90
1994;DHT22;998;49.906;10.908;2023-06-22T09:39:47;26.10;99.90
1994;DHT22;998;49.906;10.908;2023-06-22T09:42:15;26.20;99.90
1994;DHT22;998;49.906;10.908;2023-06-22T09:44:42;26.20;99.90
1994;DHT22;998;49.906;10.908;2023-06-22T09:47:09;26.20;99.90
1994;DHT22;998;49.906;10.908;2023-06-22T09:49:38;26.30;99.90
1994;DHT22;998;49.906;10.908;2023-06-22T09:52:06;26.30;99.90
1994;DHT22;998;49.906;10.908;2023-06-22T09:54:33;26.50;99.90
1994;DHT22;998;49.906;10.908;2023-06-22T09:57:01;26.40;99.90
1994;DHT22;998;49.906;10.908;2023-06-22T09:59:28;26.30;99.90
1994;DHT22;998;49.906;10.908;2023-06-22T10:01:55;26.50;99.90
1994;DHT22;998;49.906;10.908;2023-06-22T10:04:23;26.70;99.90
1994;DHT22;998;49.906;10.908;2023-06-22T10:06:52;26.90;99.90
1994;DHT22;998;49.906;10.908;2023-06-22T10:09:20;27.00;99.90
1994;DHT22;998;49.906;10.908;2023-06-22T10:11:47;27.00;99.90
1994;DHT22;998;49.906;10.908;2023-06-22T10:14:15;26.90;99.90
1994;DHT22;998;49.906;10.908;2023-06-22T10:16:42;27.00;99.90
1994;DHT22;998;49.906;10.908;2023-06-22T10:19:10;27.00;99.90
1994;DHT22;998;49.906;10.908;2023-06-22T10:21:37;27.10;99.90
1994;DHT22;998;49.906;10.908;2023-06-22T10:24:06;27.30;99.90
1994;DHT22;998;49.906;10.908;2023-06-22T10:26:34;27.50;99.90
1994;DHT22;998;49.906;10.908;2023-06-22T10:29:02;27.60;99.90
1994;DHT22;998;49.906;10.908;2023-06-22T10:31:30;27.60;99.90
1994;DHT22;998;49.906;10.908;2023-06-22T10:33:57;27.70;99.90
1994;DHT22;998;49.906;10.908;2023-06-22T10:36:25;27.70;99.90
1994;DHT22;998;49.906;10.908;2023-06-22T10:38:52;27.80;99.90
1994;DHT22;998;49.906;10.908;2023-06-22T10:41:22;27.80;99.90
1994;DHT22;998;49.906;10.908;2023-06-22T10:43:50;27.70;99.90
1994;DHT22;998;49.906;10.908;2023-06-22T10:46:17;27.60;99.90
1994;DHT22;998;49.906;10.908;2023-06-22T10:48:44;27.70;99.90
1994;DHT22;998;49.906;10.908;2023-06-22T10:51:12;27.80;99.90
1994;DHT22;998;49.906;10.908;2023-06-22T10:53:39;27.90;99.90
1994;DHT22;998;49.906;10.908;2023-06-22T10:56:06;28.10;99.90
1994;DHT22;998;49.906;10.908;2023-06-22T10:58:35;28.30;99.90
1994;DHT22;998;49.906;10.908;2023-06-22T11:01:03;28.40;99.90
1994;DHT22;998;49.906;10.908;2023-06-22T11:03:30;28.50;99.90
1994;DHT22;998;49.906;10.908;2023-06-22T11:05:57;28.40;99.90
1994;DHT22;998;49.906;10.908;2023-06-22T11:08:25;28.70;99.90
1994;DHT22;998;49.906;10.908;2023-06-22T11:10:52;28.70;99.90
1994;DHT22;998;49.906;10.908;2023-06-22T11:13:19;28.60;99.90
1994;DHT22;998;49.906;10.908;2023-06-22T11:15:48;28.80;99.90
1994;DHT22;998;49.906;10.908;2023-06-22T11:18:16;28.80;99.90
1994;DHT22;998;49.906;10.908;2023-06-22T11:20:43;28.90;99.90
1994;DHT22;998;49.906;10.908;2023-06-22T11:23:10;28.90;99.90
1994;DHT22;998;49.906;10.908;2023-06-22T11:25:38;29.20;99.90
1994;DHT22;998;49.906;10.908;2023-06-22T11:28:08;29.40;99.90
1994;DHT22;998;49.906;10.908;2023-06-22T11:30:35;29.50;99.90
1994;DHT22;998;49.906;10.908;2023-06-22T11:33:04;29.50;99.90
1994;DHT22;998;49.906;10.908;2023-06-22T11:35:32;29.40;99.90
1994;DHT22;998;49.906;10.908;2023-06-22T11:37:59;29.50;99.90
1994;DHT22;998;49.906;10.908;2023-06-22T11:40:26;29.70;99.90
1994;DHT22;998;49.906;10.908;2023-06-22T11:42:54;29.70;99.90
1994;DHT22;998;49.906;10.908;2023-06-22T11:45:21;29.80;99.90
1994;DHT22;998;49.906;10.908;2023-06-22T11:47:48;29.70;99.90
1994;DHT22;998;49.906;10.908;2023-06-22T11:50:17;29.60;99.90
1994;DHT22;998;49.906;10.908;2023-06-22T11:52:45;29.70;99.90
1994;DHT22;998;49.906;10.908;2023-06-22T11:55:12;29.70;99.90
1994;DHT22;998;49.906;10.908;2023-06-22T11:57:53;29.60;99.90
1994;DHT22;998;49.906;10.908;2023-06-22T12:00:21;29.70;99.90
1994;DHT22;998;49.906;10.908;2023-06-22T12:02:50;29.90;99.90
1994;DHT22;998;49.906;10.908;2023-06-22T12:05:20;30.00;99.90
1994;DHT22;998;49.906;10.908;2023-06-22T12:07:48;30.00;99.90
1994;DHT22;998;49.906;10.908;2023-06-22T12:10:15;30.10;99.90
1994;DHT22;998;49.906;10.908;2023-06-22T12:12:43;30.20;99.90
1994;DHT22;998;49.906;10.908;2023-06-22T12:15:11;30.30;99.90
1994;DHT22;998;49.906;10.908;2023-06-22T12:17:38;30.50;99.90
1994;DHT22;998;49.906;10.908;2023-06-22T12:20:06;30.30;99.90
1994;DHT22;998;49.906;10.908;2023-06-22T12:22:36;30.40;99.90
1994;DHT22;998;49.906;10.908;2023-06-22T12:25:05;30.70;99.90
1994;DHT22;998;49.906;10.908;2023-06-22T12:27:32;30.80;99.90
1994;DHT22;998;49.906;10.908;2023-06-22T12:30:00;30.90;99.00
1994;DHT22;998;49.906;10.908;2023-06-22T12:32:27;30.80;99.50
1994;DHT22;998;49.906;10.908;2023-06-22T12:34:54;30.80;99.00
1994;DHT22;998;49.906;10.908;2023-06-22T12:37:22;30.80;99.50
1994;DHT22;998;49.906;10.908;2023-06-22T12:39:51;31.00;99.80
1994;DHT22;998;49.906;10.908;2023-06-22T12:42:18;30.90;98.80
1994;DHT22;998;49.906;10.908;2023-06-22T12:44:46;30.90;97.60
1994;DHT22;998;49.906;10.908;2023-06-22T12:47:14;31.20;97.20
1994;DHT22;998;49.906;10.908;2023-06-22T12:49:42;31.60;97.80
1994;DHT22;998;49.906;10.908;2023-06-22T12:52:10;32.00;97.00
1994;DHT22;998;49.906;10.908;2023-06-22T12:54:38;32.30;97.20
1994;DHT22;998;49.906;10.908;2023-06-22T12:57:07;32.60;95.90
1994;DHT22;998;49.906;10.908;2023-06-22T12:59:34;32.60;94.20
1994;DHT22;998;49.906;10.908;2023-06-22T13:02:01;32.70;94.80
1994;DHT22;998;49.906;10.908;2023-06-22T13:04:29;32.60;94.00
1994;DHT22;998;49.906;10.908;2023-06-22T13:06:56;32.40;94.20
1994;DHT22;998;49.906;10.908;2023-06-22T13:09:24;32.40;94.50
1994;DHT22;998;49.906;10.908;2023-06-22T13:11:51;32.30;94.90
1994;DHT22;998;49.906;10.908;2023-06-22T13:14:20;32.20;94.00
1994;DHT22;998;49.906;10.908;2023-06-22T13:16:47;32.00;94.40
1994;DHT22;998;49.906;10.908;2023-06-22T13:19:15;31.80;94.60
1994;DHT22;998;49.906;10.908;2023-06-22T13:21:42;31.80;94.80
1994;DHT22;998;49.906;10.908;2023-06-22T13:24:10;31.70;95.30
1994;DHT22;998;49.906;10.908;2023-06-22T13:26:37;31.70;94.90
1994;DHT22;998;49.906;10.908;2023-06-22T13:29:05;31.70;95.20
1994;DHT22;998;49.906;10.908;2023-06-22T13:31:33;31.70;95.60
1994;DHT22;998;49.906;10.908;2023-06-22T13:34:01;31.80;95.60
1994;DHT22;998;49.906;10.908;2023-06-22T13:36:28;31.80;93.80
1994;DHT22;998;49.906;10.908;2023-06-22T13:38:56;31.80;93.50
1994;DHT22;998;49.906;10.908;2023-06-22T13:41:24;32.00;93.30
1994;DHT22;998;49.906;10.908;2023-06-22T13:43:51;32.20;93.80
1994;DHT22;998;49.906;10.908;2023-06-22T13:46:19;32.10;93.70
1994;DHT22;998;49.906;10.908;2023-06-22T13:48:47;32.00;94.00
1994;DHT22;998;49.906;10.908;2023-06-22T13:51:15;32.00;93.90
1994;DHT22;998;49.906;10.908;2023-06-22T13:53:42;31.80;94.50
1994;DHT22;998;49.906;10.908;2023-06-22T13:56:10;31.70;95.00
1994;DHT22;998;49.906;10.908;2023-06-22T13:58:37;31.70;94.80
1994;DHT22;998;49.906;10.908;2023-06-22T14:01:04;31.60;95.30
1994;DHT22;998;49.906;10.908;2023-06-22T14:03:32;31.60;94.90
1994;DHT22;998;49.906;10.908;2023-06-22T14:06:00;31.70;94.80
1994;DHT22;998;49.906;10.908;2023-06-22T14:08:28;31.70;94.70
1994;DHT22;998;49.906;10.908;2023-06-22T14:10:55;31.50;95.40
1994;DHT22;998;49.906;10.908;2023-06-22T14:13:23;31.40;94.80
1994;DHT22;998;49.906;10.908;2023-06-22T14:15:50;31.40;95.00
1994;DHT22;998;49.906;10.908;2023-06-22T14:18:19;31.40;94.70
1994;DHT22;998;49.906;10.908;2023-06-22T14:20:48;31.50;94.70
1994;DHT22;998;49.906;10.908;2023-06-22T14:23:17;31.50;95.00
1994;DHT22;998;49.906;10.908;2023-06-22T14:25:44;31.60;95.10
1994;DHT22;998;49.906;10.908;2023-06-22T14:28:11;31.70;94.80
1994;DHT22;998;49.906;10.908;2023-06-22T14:30:39;31.80;94.00
1994;DHT22;998;49.906;10.908;2023-06-22T14:33:06;31.90;93.30
1994;DHT22;998;49.906;10.908;2023-06-22T14:35:33;32.10;93.50
1994;DHT22;998;49.906;10.908;2023-06-22T14:38:01;32.40;93.20
1994;DHT22;998;49.906;10.908;2023-06-22T14:40:30;32.60;93.30
1994;DHT22;998;49.906;10.908;2023-06-22T14:42:57;32.70;92.50
1994;DHT22;998;49.906;10.908;2023-06-22T14:45:24;32.80;92.40
1994;DHT22;998;49.906;10.908;2023-06-22T14:47:52;32.90;92.40
1994;DHT22;998;49.906;10.908;2023-06-22T14:50:19;33.10;90.80
1994;DHT22;998;49.906;10.908;2023-06-22T14:52:47;33.10;90.60
1994;DHT22;998;49.906;10.908;2023-06-22T14:55:14;33.10;90.20
1994;DHT22;998;49.906;10.908;2023-06-22T14:57:43;33.10;89.10
1994;DHT22;998;49.906;10.908;2023-06-22T15:00:11;32.90;88.20
1994;DHT22;998;49.906;10.908;2023-06-22T15:02:38;33.10;87.50
1994;DHT22;998;49.906;10.908;2023-06-22T15:05:08;33.10;87.30
1994;DHT22;998;49.906;10.908;2023-06-22T15:07:35;33.10;86.80
1994;DHT22;998;49.906;10.908;2023-06-22T15:10:02;33.20;87.20
1994;DHT22;998;49.906;10.908;2023-06-22T15:12:30;32.90;87.90
1994;DHT22;998;49.906;10.908;2023-06-22T15:14:58;32.80;88.20
1994;DHT22;998;49.906;10.908;2023-06-22T15:17:26;32.90;86.90
1994;DHT22;998;49.906;10.908;2023-06-22T15:19:58;32.90;86.70
1994;DHT22;998;49.906;10.908;2023-06-22T15:22:26;32.90;86.80
1994;DHT22;998;49.906;10.908;2023-06-22T15:24:53;32.90;87.70
1994;DHT22;998;49.906;10.908;2023-06-22T15:27:23;32.90;87.80
1994;DHT22;998;49.906;10.908;2023-06-22T15:29:51;32.90;87.50
1994;DHT22;998;49.906;10.908;2023-06-22T15:32:20;32.90;88.70
1994;DHT22;998;49.906;10.908;2023-06-22T15:34:47;33.10;86.10
1994;DHT22;998;49.906;10.908;2023-06-22T15:37:17;33.20;86.80
1994;DHT22;998;49.906;10.908;2023-06-22T15:39:44;33.40;86.20
1994;DHT22;998;49.906;10.908;2023-06-22T15:42:11;33.30;86.40
1994;DHT22;998;49.906;10.908;2023-06-22T15:44:39;33.40;87.90
1994;DHT22;998;49.906;10.908;2023-06-22T15:47:06;33.30;87.70
1994;DHT22;998;49.906;10.908;2023-06-22T15:49:35;33.40;86.00
1994;DHT22;998;49.906;10.908;2023-06-22T15:52:03;33.50;85.90
1994;DHT22;998;49.906;10.908;2023-06-22T15:54:30;33.40;85.30
1994;DHT22;998;49.906;10.908;2023-06-22T15:56:58;33.50;85.70
1994;DHT22;998;49.906;10.908;2023-06-22T15:59:26;33.70;83.80
1994;DHT22;998;49.906;10.908;2023-06-22T16:01:53;33.60;81.30
1994;DHT22;998;49.906;10.908;2023-06-22T16:04:21;33.60;80.00
1994;DHT22;998;49.906;10.908;2023-06-22T16:06:50;33.60;80.00
1994;DHT22;998;49.906;10.908;2023-06-22T16:09:17;33.50;77.60